Walden, New York
Current Conditions -  °F | °C
As of 5:54 AM on Tuesday 21 Oct 2014 (Local Time) from KMGJ Reporting Station
Overcast Overcast  
Wind Chill: 46°   Ceiling: 6000
Heat Index: 46°   Visibility: 10mi
Dew Point: 44°   Wind: 0mph
Humidity: 93%   Direction: NA
Pressure: 29.9"   Gusts: NA
Location:  41.56°N, 74.19°W
Report Text: KMGJ 210954Z AUTO 00000KT 10SM OVC060 08/07 A2990 RMK AO2 RAE35 SLP124 P0001 T00780067 TSNO
Loading
Personal Weather Stations






























Interactive Weather Map
Tropical Storm Tracking
New forecast layout! Learn more

10-Day Weather Forecast

Advertisements
Track Severe Weather on mobile